Custom file does not exist C:\wdisplay\webfiles\testtags.txt Page13Designs.com - Nearby METAR Reports

Nearby METAR Reports

 

KLEE - Leesburg, Florida, USA
Distance from station: NNE 9mi, 14km
Updated: Wed, 22-Nov-2017 4:53pm EST
Mostly cloudy
Mostly cloudy
 Wind from ENE
Wind: ENE 12 mph , 19 km/h
Temperature: 75°F , 24°C
Dew Point: 64°F , 18°C
Humidity: 69%
Barometer: 29.94 inHg , 1013.9 hPa
Clouds: Mostly cloudy
Visibility: 10 miles , 16 km
Cloud details: Mostly cloudy 3800 ft
2017/11/22 21:53 KLEE 222153Z 07010KT 10SM BKN038 24/18 A2994 RMK AO2 SLP138 T02440178
KVVG - The Villages, Florida, USA
Distance from station: NNW 19mi, 30km
Updated: Wed, 22-Nov-2017 4:50pm EST
Haze
Haze
 Wind from ENE
Wind: ENE 5 mph , 7 km/h, Gust: 13 mph , 20 km/h
Temperature: 75°F , 24°C
Dew Point: 64°F , 18°C
Humidity: 69%
Barometer: 29.85 inHg , 1010.8 hPa
Summary: Haze
Visibility: 4 miles , 6 km
2017/11/22 21:50 KVVG 222150Z AUTO 06004G11KT 4SM HZ 24/18 A2985 RMK A01
 
KINF - Inverness, Florida, USA
Distance from station: WNW 29mi, 46km
Updated: Wed, 22-Nov-2017 4:55pm EST
Partly cloudy
Partly cloudy
 Wind from calm
Wind: Calm
Temperature: 73°F , 23°C
Dew Point: 64°F , 18°C
Humidity: 74%
Barometer: 29.94 inHg , 1013.9 hPa
Clouds: Partly cloudy
Visibility: 10 miles , 16 km
Cloud details: Partly cloudy 6000 ft
2017/11/22 21:55 KINF 222155Z AUTO 00000KT 10SM SCT060 23/18 A2994 RMK AO2
KORL - Orlando, Florida, USA
Distance from station: ESE 34mi, 54km
Updated: Wed, 22-Nov-2017 4:53pm EST
Clear
Clear
 Wind from ENE
Wind: ENE 13 mph , 20 km/h
Temperature: 73°F , 23°C
Dew Point: 63°F , 17°C
Humidity: 69%
Barometer: 29.94 inHg , 1013.9 hPa
Clouds: Clear
Visibility: 10 miles , 16 km
2017/11/22 21:53 KORL 222153Z 06011KT 10SM CLR 23/17 A2994 RMK AO2 SLP142 T02330172
 
KZPH - Zephyrhills, Florida, USA
Distance from station: SSW 36mi, 59km
Updated: Wed, 22-Nov-2017 5:15pm EST
Clear
Clear
 Wind from calm
Wind: Calm
Temperature: 75°F , 24°C
Dew Point: 64°F , 18°C
Humidity: 69%
Barometer: 29.93 inHg , 1013.5 hPa
Clouds: Clear
Visibility: 10 miles , 16 km
2017/11/22 22:15 KZPH 222215Z AUTO 00000KT 10SM CLR 24/18 A2993 RMK AO2 T02410180
KMCO - Orlando, Florida, USA
Distance from station: ESE 37mi, 60km
Updated: Wed, 22-Nov-2017 4:53pm EST
Mostly cloudy
Mostly cloudy
 Wind from ENE
Wind: ENE 12 mph , 19 km/h
Temperature: 73°F , 23°C
Dew Point: 64°F , 18°C
Humidity: 74%
Barometer: 29.94 inHg , 1013.9 hPa
Clouds: Mostly cloudy
Visibility: 10 miles , 16 km
Cloud details: Few Clouds 2700 ft
Mostly cloudy 14000 ft
Mostly cloudy 25000 ft
2017/11/22 21:53 KMCO 222153Z 07010KT 10SM FEW027 BKN140 BKN250 23/18 A2994 RMK AO2 SLP137 T02280178
 
KISM - Kissimmee/Orland, Florida, USA
Distance from station: SE 39mi, 62km
Updated: Wed, 22-Nov-2017 4:56pm EST
Few Clouds
Few Clouds
 Wind from E
Wind: E 10 mph , 17 km/h
Temperature: 73°F , 23°C
Dew Point: 64°F , 18°C
Humidity: 74%
Barometer: 29.94 inHg , 1013.9 hPa
Clouds: Few Clouds
Visibility: 10 miles , 16 km
Cloud details: Few Clouds 8000 ft
2017/11/22 21:56 KISM 222156Z 09009KT 10SM FEW080 23/18 A2994 RMK AO2 SLP141 T02330178
KBKV - Brooksville, Florida, USA
Distance from station: WSW 39mi, 63km
Updated: Wed, 22-Nov-2017 4:53pm EST
Clear
Clear
 Wind from NE
Wind: NE 5 mph , 7 km/h
Temperature: 75°F , 24°C
Dew Point: 63°F , 17°C
Humidity: 65%
Barometer: 29.93 inHg , 1013.5 hPa
Clouds: Clear
Visibility: 10 miles , 16 km
2017/11/22 21:53 KBKV 222153Z 05004KT 10SM CLR 24/17 A2993 RMK AO2 SLP134 T02440172
 
KOCF - Ocala Muni, Florida, USA
Distance from station: NW 39mi, 63km
Updated: Wed, 22-Nov-2017 4:51pm EST
Mostly cloudy
Mostly cloudy
 Wind from varies
Wind: varies 5 mph , 7 km/h
Temperature: 75°F , 24°C
Dew Point: 61°F , 16°C
Humidity: 61%
Barometer: 29.94 inHg , 1013.9 hPa
Clouds: Mostly cloudy
Visibility: 10 miles , 16 km
Cloud details: Partly cloudy 3900 ft
Mostly cloudy 4800 ft
2017/11/22 21:51 KOCF 222151Z VRB04KT 10SM SCT039 BKN048 24/16 A2994 RMK AO2 SLP141 T02390161
KSFB - Sanford/Orlando, Florida, USA
Distance from station: E 39mi, 63km
Updated: Wed, 22-Nov-2017 4:53pm EST
Clear
Clear
 Wind from NE
Wind: NE 10 mph , 17 km/h
Temperature: 73°F , 23°C
Dew Point: 63°F , 17°C
Humidity: 69%
Barometer: 29.95 inHg , 1014.2 hPa
Clouds: Clear
Visibility: 10 miles , 16 km
2017/11/22 21:53 KSFB 222153Z 05009KT 10SM CLR 23/17 A2995 RMK AO2 SLP141 T02280167
 
KDED - Deland, Florida, USA
Distance from station: NE 43mi, 70km
Updated: Wed, 22-Nov-2017 4:55pm EST
Partly cloudy
Partly cloudy
 Wind from NNE
Wind: NNE 6 mph , 9 km/h
Temperature: 70°F , 21°C
Dew Point: 63°F , 17°C
Humidity: 78%
Barometer: 29.95 inHg , 1014.2 hPa
Clouds: Partly cloudy
Visibility: 10 miles , 16 km
Cloud details: Partly cloudy 2400 ft
2017/11/22 21:55 KDED 222155Z AUTO 03005KT 10SM SCT024 21/17 A2995 RMK AO2
KCGC - Crystal River, Florida, USA
Distance from station: WNW 44mi, 71km
Updated: Wed, 22-Nov-2017 4:55pm EST
Clear
Clear
 Wind from calm
Wind: Calm
Temperature: 75°F , 24°C
Dew Point: 63°F , 17°C
Humidity: 65%
Barometer: 29.93 inHg , 1013.5 hPa
Clouds: Clear
Visibility: 10 miles , 16 km
2017/11/22 21:55 KCGC 222155Z AUTO 00000KT 10SM CLR 24/17 A2993 RMK AO2
 
KGIF - Winter Haven, Florida, USA
Distance from station: S 44mi, 71km
Updated: Wed, 22-Nov-2017 4:53pm EST
Clear
Clear
 Wind from E
Wind: E 3 mph , 6 km/h
Temperature: 77°F , 25°C
Dew Point: 64°F , 18°C
Humidity: 65%
Barometer: 29.94 inHg , 1013.9 hPa
Clouds: Clear
Visibility: 10 miles , 16 km
2017/11/22 21:53 KGIF 222153Z AUTO 08003KT 10SM CLR 25/18 A2994 RMK AO2 SLP134 T02500178